Time;durP1;ratioP1;P1;durP2;ratioP2;P2;SDS_P1;SDS_P2;PMS_P1;PMS_P2;Temp;Humidity;BMP_temperature;BMP_pressure;BME280_temperature;BME280_humidity;BME280_pressure;Samples;Min_cycle;Max_cycle;Signal;HPM_P1;HPM_P2
2020/12/10 00:00:32;;;;;;;14.63;4.78;;;;;;;;;;5073224;28;20109;-57
2020/12/10 00:02:58;;;;;;;15.00;5.15;;;;;;;;;;5079528;28;20310;-54
2020/12/10 00:05:24;;;;;;;17.35;6.30;;;;;;;;;;5073793;28;20055;-54
2020/12/10 00:07:53;;;;;;;15.15;4.70;;;;;;;;;;5043597;28;20095;-55
2020/12/10 00:10:19;;;;;;;13.27;4.53;;;;;;;;;;5042766;28;20475;-56
2020/12/10 00:12:47;;;;;;;13.80;4.22;;;;;;;;;;5045582;28;20083;-59
2020/12/10 00:15:13;;;;;;;13.65;5.10;;;;;;;;;;5046220;28;20041;-52
2020/12/10 00:17:39;;;;;;;15.10;5.30;;;;;;;;;;5063488;28;20036;-53
2020/12/10 00:20:06;;;;;;;17.25;5.18;;;;;;;;;;5059705;28;20269;-57
2020/12/10 00:22:32;;;;;;;14.48;5.57;;;;;;;;;;5039799;28;20409;-58
2020/12/10 00:24:59;;;;;;;12.50;4.70;;;;;;;;;;5025223;28;20056;-56
2020/12/10 00:27:25;;;;;;;12.48;4.88;;;;;;;;;;5044982;28;20029;-54
2020/12/10 00:29:57;;;;;;;10.80;4.45;;;;;;;;;;5044085;28;20043;-56
2020/12/10 00:32:23;;;;;;;11.88;4.65;;;;;;;;;;5025162;28;20051;-54
2020/12/10 00:34:55;;;;;;;12.30;4.38;;;;;;;;;;5024112;28;20037;-51
2020/12/10 00:37:21;;;;;;;14.43;4.50;;;;;;;;;;5041430;28;20134;-52
2020/12/10 00:39:47;;;;;;;17.58;5.38;;;;;;;;;;5044150;28;20036;-55
2020/12/10 00:42:13;;;;;;;15.10;5.15;;;;;;;;;;5033720;28;20103;-55
2020/12/10 00:44:39;;;;;;;16.40;5.00;;;;;;;;;;5034636;28;20037;-53
2020/12/10 00:47:06;;;;;;;13.23;4.70;;;;;;;;;;5052181;28;20093;-58
2020/12/10 00:49:34;;;;;;;12.75;5.03;;;;;;;;;;5061962;28;20333;-57
2020/12/10 00:52:00;;;;;;;15.27;4.78;;;;;;;;;;5051694;28;20073;-56
2020/12/10 00:54:26;;;;;;;15.73;5.97;;;;;;;;;;5048033;28;20048;-54
2020/12/10 00:56:52;;;;;;;15.60;5.50;;;;;;;;;;5053195;28;20059;-55
2020/12/10 00:59:18;;;;;;;15.52;5.10;;;;;;;;;;5060403;28;20065;-58
2020/12/10 01:01:44;;;;;;;14.50;5.13;;;;;;;;;;5052799;28;20396;-56
2020/12/10 01:04:13;;;;;;;18.10;5.97;;;;;;;;;;5041553;28;20041;-54
2020/12/10 01:06:46;;;;;;;;;;;;;;;;;;5039757;28;20041;-58
2020/12/10 01:09:12;;;;;;;12.10;4.80;;;;;;;;;;5044529;28;19924;-59
2020/12/10 01:11:41;;;;;;;15.65;5.28;;;;;;;;;;5059926;28;20032;-58
2020/12/10 01:14:08;;;;;;;15.52;5.45;;;;;;;;;;5064464;28;20032;-60
2020/12/10 01:16:35;;;;;;;12.88;4.75;;;;;;;;;;5063471;28;20080;-53
2020/12/10 01:19:01;;;;;;;15.63;5.43;;;;;;;;;;5057039;28;20040;-54
2020/12/10 01:21:29;;;;;;;13.80;5.30;;;;;;;;;;5077323;28;20077;-56
2020/12/10 01:23:55;;;;;;;16.50;6.45;;;;;;;;;;5054360;28;20113;-55
2020/12/10 01:26:22;;;;;;;13.00;5.20;;;;;;;;;;5060349;28;20036;-53
2020/12/10 01:28:48;;;;;;;17.27;6.13;;;;;;;;;;5060810;28;20059;-54
2020/12/10 01:31:14;;;;;;;14.95;5.90;;;;;;;;;;5063384;28;20048;-54
2020/12/10 01:33:43;;;;;;;18.20;6.07;;;;;;;;;;5068652;28;20040;-50
2020/12/10 01:36:09;;;;;;;14.05;5.70;;;;;;;;;;5078814;28;20047;-54
2020/12/10 01:38:36;;;;;;;14.45;5.63;;;;;;;;;;5057191;28;20041;-55
2020/12/10 01:41:02;;;;;;;14.63;5.38;;;;;;;;;;5061234;28;20045;-52
2020/12/10 01:43:28;;;;;;;16.55;5.53;;;;;;;;;;5059512;28;20096;-54
2020/12/10 01:45:54;;;;;;;17.17;6.22;;;;;;;;;;5061680;28;20049;-55
2020/12/10 01:48:21;;;;;;;13.73;5.38;;;;;;;;;;5059883;28;20055;-57
2020/12/10 01:50:47;;;;;;;13.57;5.40;;;;;;;;;;5063480;28;20081;-55
2020/12/10 01:53:13;;;;;;;16.55;6.47;;;;;;;;;;5060477;28;20053;-53
2020/12/10 01:55:39;;;;;;;18.40;6.43;;;;;;;;;;5062911;28;20781;-49
2020/12/10 01:58:06;;;;;;;13.27;6.03;;;;;;;;;;5064069;28;20043;-52
2020/12/10 02:00:33;;;;;;;14.45;5.35;;;;;;;;;;5056572;28;20056;-52
2020/12/10 02:02:59;;;;;;;13.32;5.28;;;;;;;;;;5059736;28;20029;-50
2020/12/10 02:05:25;;;;;;;13.68;5.30;;;;;;;;;;5073594;28;20068;-57
2020/12/10 02:07:51;;;;;;;15.80;5.20;;;;;;;;;;5080243;28;20097;-52
2020/12/10 02:10:18;;;;;;;15.07;5.53;;;;;;;;;;5057262;28;20047;-53
2020/12/10 02:12:45;;;;;;;15.70;5.53;;;;;;;;;;5063383;28;20470;-49
2020/12/10 02:15:11;;;;;;;14.70;5.60;;;;;;;;;;5056640;28;20044;-56
2020/12/10 02:17:37;;;;;;;14.63;5.35;;;;;;;;;;5060565;28;20530;-54
2020/12/10 02:20:05;;;;;;;13.30;6.03;;;;;;;;;;5065620;28;20060;-51
2020/12/10 02:22:31;;;;;;;15.85;4.97;;;;;;;;;;5081844;28;20120;-52
2020/12/10 02:24:58;;;;;;;14.65;5.82;;;;;;;;;;5057708;28;20041;-54
2020/12/10 02:27:24;;;;;;;13.88;5.68;;;;;;;;;;5060498;28;20052;-52
2020/12/10 02:29:53;;;;;;;19.75;5.78;;;;;;;;;;5080652;28;20064;-52
2020/12/10 02:32:19;;;;;;;14.38;4.60;;;;;;;;;;5082618;28;20080;-51
2020/12/10 02:34:45;;;;;;;13.52;4.97;;;;;;;;;;5064028;28;20569;-55
2020/12/10 02:37:11;;;;;;;19.55;6.22;;;;;;;;;;5047054;28;20068;-55
2020/12/10 02:39:37;;;;;;;13.73;5.32;;;;;;;;;;5026516;28;20052;-56
2020/12/10 02:42:04;;;;;;;13.52;5.68;;;;;;;;;;5044367;28;20523;-55
2020/12/10 02:44:30;;;;;;;12.00;4.88;;;;;;;;;;5045709;28;20444;-57
2020/12/10 02:46:56;;;;;;;12.68;4.60;;;;;;;;;;5044746;28;20037;-60
2020/12/10 02:49:22;;;;;;;19.42;6.63;;;;;;;;;;5025706;28;20049;-55
2020/12/10 02:51:48;;;;;;;16.08;5.90;;;;;;;;;;5021340;28;20574;-56
2020/12/10 02:54:14;;;;;;;13.98;4.95;;;;;;;;;;5042509;28;20049;-55
2020/12/10 02:56:40;;;;;;;19.25;6.07;;;;;;;;;;5031962;28;20051;-58
2020/12/10 02:59:07;;;;;;;18.23;5.75;;;;;;;;;;5044047;28;20040;-58
2020/12/10 03:01:36;;;;;;;17.50;6.13;;;;;;;;;;5028966;28;20096;-57
2020/12/10 03:04:02;;;;;;;19.60;5.07;;;;;;;;;;5061612;28;20064;-56
2020/12/10 03:06:28;;;;;;;18.98;6.40;;;;;;;;;;5061331;28;20072;-60
2020/12/10 03:08:54;;;;;;;13.93;5.38;;;;;;;;;;5064641;28;20080;-60
2020/12/10 03:11:20;;;;;;;15.90;5.68;;;;;;;;;;5059693;28;20044;-55
2020/12/10 03:13:46;;;;;;;14.60;5.93;;;;;;;;;;5068677;28;20037;-56
2020/12/10 03:16:13;;;;;;;21.70;6.40;;;;;;;;;;5044585;28;20118;-57
2020/12/10 03:18:40;;;;;;;14.88;5.80;;;;;;;;;;5061945;28;20044;-57
2020/12/10 03:21:06;;;;;;;19.40;6.72;;;;;;;;;;5064905;28;20047;-55
2020/12/10 03:23:32;;;;;;;21.17;7.30;;;;;;;;;;5044537;28;20044;-53
2020/12/10 03:25:58;;;;;;;21.70;7.32;;;;;;;;;;5044395;28;20072;-52
2020/12/10 03:28:24;;;;;;;20.48;6.15;;;;;;;;;;5055501;28;20053;-54
2020/12/10 03:30:50;;;;;;;18.38;6.35;;;;;;;;;;5083197;28;20118;-52
2020/12/10 03:33:17;;;;;;;19.90;7.70;;;;;;;;;;5062102;28;20039;-53
2020/12/10 03:35:43;;;;;;;19.83;6.45;;;;;;;;;;5085417;28;22585;-54
2020/12/10 03:38:09;;;;;;;20.95;7.05;;;;;;;;;;5071645;28;20114;-52
2020/12/10 03:40:35;;;;;;;23.85;8.15;;;;;;;;;;5047818;28;20064;-54
2020/12/10 03:43:01;;;;;;;16.90;6.43;;;;;;;;;;5048085;28;20042;-53
2020/12/10 03:45:27;;;;;;;16.98;6.00;;;;;;;;;;5066726;28;20051;-56
2020/12/10 03:47:53;;;;;;;17.35;6.75;;;;;;;;;;5059478;28;20044;-56
2020/12/10 03:50:20;;;;;;;19.98;6.82;;;;;;;;;;5045578;28;20546;-53
2020/12/10 03:52:46;;;;;;;14.67;5.77;;;;;;;;;;5042943;28;20048;-55
2020/12/10 03:55:12;;;;;;;16.90;5.50;;;;;;;;;;5062916;28;20044;-60
2020/12/10 03:57:38;;;;;;;18.15;6.32;;;;;;;;;;5065840;28;20044;-55
2020/12/10 04:00:05;;;;;;;18.92;6.78;;;;;;;;;;5061244;28;20036;-50
2020/12/10 04:02:31;;;;;;;13.10;5.15;;;;;;;;;;5082703;28;20046;-52
2020/12/10 04:04:59;;;;;;;15.15;6.03;;;;;;;;;;5057874;28;20076;-56
2020/12/10 04:07:26;;;;;;;16.23;5.65;;;;;;;;;;5037234;28;20498;-55
2020/12/10 04:09:52;;;;;;;14.27;5.57;;;;;;;;;;5052440;28;20047;-56
2020/12/10 04:12:18;;;;;;;12.77;4.47;;;;;;;;;;5065281;28;20040;-55
2020/12/10 04:14:44;;;;;;;14.48;5.55;;;;;;;;;;5060234;28;20044;-53
2020/12/10 04:17:10;;;;;;;18.60;6.70;;;;;;;;;;5065340;28;20114;-53
2020/12/10 04:19:36;;;;;;;14.40;6.15;;;;;;;;;;5061554;28;20044;-55
2020/12/10 04:22:02;;;;;;;12.80;4.78;;;;;;;;;;5064821;28;20040;-53
2020/12/10 04:24:29;;;;;;;17.92;5.93;;;;;;;;;;5062188;28;20093;-54
2020/12/10 04:26:55;;;;;;;18.73;5.75;;;;;;;;;;5064620;28;20143;-58
2020/12/10 04:29:21;;;;;;;17.13;6.22;;;;;;;;;;5078561;28;20076;-57
2020/12/10 04:31:47;;;;;;;17.50;5.53;;;;;;;;;;5081685;28;20040;-52
2020/12/10 04:34:13;;;;;;;13.55;5.47;;;;;;;;;;5082345;28;20044;-55
2020/12/10 04:36:40;;;;;;;13.02;5.57;;;;;;;;;;5042128;28;20234;-56
2020/12/10 04:39:06;;;;;;;14.57;5.63;;;;;;;;;;5062641;28;20486;-54
2020/12/10 04:41:36;;;;;;;14.23;5.57;;;;;;;;;;5058222;28;20036;-60
2020/12/10 04:44:02;;;;;;;15.35;5.40;;;;;;;;;;5065259;28;20040;-60
2020/12/10 04:46:28;;;;;;;13.32;4.47;;;;;;;;;;5056149;28;20056;-59
2020/12/10 04:48:55;;;;;;;18.73;5.75;;;;;;;;;;5061152;28;20040;-60
2020/12/10 04:51:22;;;;;;;14.10;4.80;;;;;;;;;;5066691;28;20041;-56
2020/12/10 04:53:50;;;;;;;14.60;5.15;;;;;;;;;;5045186;28;20059;-53
2020/12/10 04:56:16;;;;;;;15.60;5.53;;;;;;;;;;5042004;28;20044;-59
2020/12/10 04:58:44;;;;;;;14.45;5.25;;;;;;;;;;5044698;28;20069;-58
2020/12/10 05:01:10;;;;;;;15.30;5.22;;;;;;;;;;5062565;28;20048;-56
2020/12/10 05:03:36;;;;;;;15.02;5.63;;;;;;;;;;5064228;28;20076;-58
2020/12/10 05:06:07;;;;;;;16.83;5.68;;;;;;;;;;5061190;28;20443;-58
2020/12/10 05:08:33;;;;;;;13.38;5.00;;;;;;;;;;5080835;28;20457;-59
2020/12/10 05:10:59;;;;;;;12.20;3.88;;;;;;;;;;5061549;28;20529;-56
2020/12/10 05:13:26;;;;;;;11.63;5.07;;;;;;;;;;5044588;28;20135;-52
2020/12/10 05:15:53;;;;;;;15.02;5.22;;;;;;;;;;5044690;28;20054;-57
2020/12/10 05:18:19;;;;;;;14.23;5.45;;;;;;;;;;5040739;28;20041;-57
2020/12/10 05:20:46;;;;;;;13.93;5.07;;;;;;;;;;5044407;28;20049;-56
2020/12/10 05:23:12;;;;;;;16.42;5.65;;;;;;;;;;5039647;28;20051;-53
2020/12/10 05:25:48;;;;;;;13.95;5.82;;;;;;;;;;5062522;28;20128;-56
2020/12/10 05:28:14;;;;;;;16.10;5.70;;;;;;;;;;5053852;28;20051;-57
2020/12/10 05:30:42;;;;;;;14.55;5.25;;;;;;;;;;5064249;28;20046;-53
2020/12/10 05:33:10;;;;;;;13.38;5.10;;;;;;;;;;5052648;28;20067;-57
2020/12/10 05:35:36;;;;;;;13.82;5.05;;;;;;;;;;5080068;28;20110;-56
2020/12/10 05:38:06;;;;;;;18.73;5.57;;;;;;;;;;5077456;28;20055;-55
2020/12/10 05:40:32;;;;;;;15.65;5.97;;;;;;;;;;5062785;28;20064;-56
2020/12/10 05:42:58;;;;;;;14.52;5.70;;;;;;;;;;5072880;28;20052;-57
2020/12/10 05:45:24;;;;;;;17.48;6.03;;;;;;;;;;5061441;28;20072;-54
2020/12/10 05:47:51;;;;;;;12.80;5.32;;;;;;;;;;5040322;28;20609;-56
2020/12/10 05:50:24;;;;;;;15.48;4.90;;;;;;;;;;5043403;28;20048;-53
2020/12/10 05:53:05;;;;;;;14.13;5.45;;;;;;;;;;5041493;28;20036;-53
2020/12/10 05:55:32;;;;;;;21.13;6.68;;;;;;;;;;5080204;28;20116;-53
2020/12/10 05:57:58;;;;;;;14.35;5.72;;;;;;;;;;5058577;28;20060;-53
2020/12/10 06:00:30;;;;;;;15.50;5.47;;;;;;;;;;5060770;28;20070;-55
2020/12/10 06:02:56;;;;;;;15.65;5.82;;;;;;;;;;5077757;28;20521;-56
2020/12/10 06:05:24;;;;;;;14.68;6.03;;;;;;;;;;5044781;28;20127;-55
2020/12/10 06:08:14;;;;;;;15.88;5.22;;;;;;;;;;5063664;28;20045;-57
2020/12/10 06:10:41;;;;;;;15.07;4.60;;;;;;;;;;5039880;28;20099;-60
2020/12/10 06:13:07;;;;;;;16.70;5.72;;;;;;;;;;5080030;28;20051;-59
2020/12/10 06:15:34;;;;;;;14.40;6.10;;;;;;;;;;5043440;28;20041;-56
2020/12/10 06:18:03;;;;;;;12.93;4.30;;;;;;;;;;5047344;28;20040;-57
2020/12/10 06:20:36;;;;;;;16.40;5.78;;;;;;;;;;5042417;28;20028;-51
2020/12/10 06:23:24;;;;;;;15.85;5.88;;;;;;;;;;5047016;28;20059;-54
2020/12/10 06:25:51;;;;;;;13.93;5.65;;;;;;;;;;5056141;28;20041;-55
2020/12/10 06:28:19;;;;;;;18.98;6.30;;;;;;;;;;5048484;28;20048;-57
2020/12/10 06:31:01;;;;;;;17.67;6.60;;;;;;;;;;5057907;28;20081;-54
2020/12/10 06:33:34;;;;;;;15.88;5.53;;;;;;;;;;5083943;28;20040;-56
2020/12/10 06:36:16;;;;;;;14.43;5.05;;;;;;;;;;5061389;28;20043;-58
2020/12/10 06:38:43;;;;;;;16.55;6.60;;;;;;;;;;5082743;28;20101;-56
2020/12/10 06:41:09;;;;;;;15.43;5.88;;;;;;;;;;5047286;28;20033;-60
2020/12/10 06:43:35;;;;;;;13.50;5.15;;;;;;;;;;5046284;28;20043;-59
2020/12/10 06:46:01;;;;;;;17.73;5.13;;;;;;;;;;5059747;28;20080;-61
2020/12/10 06:48:38;;;;;;;15.52;5.80;;;;;;;;;;5047333;28;20133;-55
2020/12/10 06:51:11;;;;;;;16.27;5.93;;;;;;;;;;5042728;28;20072;-60
2020/12/10 06:53:37;;;;;;;14.93;5.32;;;;;;;;;;5060657;28;20127;-60
2020/12/10 06:56:08;;;;;;;15.50;5.72;;;;;;;;;;5068495;28;20037;-61
2020/12/10 06:58:52;;;;;;;13.13;4.70;;;;;;;;;;5064693;28;20062;-61
2020/12/10 07:01:22;;;;;;;14.98;6.00;;;;;;;;;;5050688;28;20032;-59
2020/12/10 07:03:50;;;;;;;17.67;6.00;;;;;;;;;;5041810;28;20041;-61
2020/12/10 07:06:19;;;;;;;21.48;6.18;;;;;;;;;;5048911;28;20060;-54
2020/12/10 07:09:03;;;;;;;18.35;6.22;;;;;;;;;;5062264;28;20033;-56
2020/12/10 07:11:30;;;;;;;19.52;6.28;;;;;;;;;;5055172;28;20121;-61
2020/12/10 07:13:56;;;;;;;14.63;5.78;;;;;;;;;;5057494;28;20037;-61
2020/12/10 07:16:28;;;;;;;17.70;6.60;;;;;;;;;;5056675;28;20126;-58
2020/12/10 07:18:54;;;;;;;19.80;6.25;;;;;;;;;;5042463;28;20042;-58
2020/12/10 07:21:22;;;;;;;20.40;6.15;;;;;;;;;;5043344;28;20037;-61
2020/12/10 07:23:48;;;;;;;16.25;5.93;;;;;;;;;;5062400;28;20049;-58
2020/12/10 07:26:14;;;;;;;18.17;6.57;;;;;;;;;;5055548;28;20048;-61
2020/12/10 07:28:41;;;;;;;19.58;6.80;;;;;;;;;;5061574;28;20049;-60
2020/12/10 07:31:13;;;;;;;15.60;5.13;;;;;;;;;;5062177;28;20044;-55
2020/12/10 07:33:39;;;;;;;20.63;7.00;;;;;;;;;;5059271;28;20094;-55
2020/12/10 07:36:06;;;;;;;18.52;6.75;;;;;;;;;;5061741;28;20044;-57
2020/12/10 07:38:33;;;;;;;16.13;6.20;;;;;;;;;;5043815;28;20064;-55
2020/12/10 07:41:01;;;;;;;14.27;4.25;;;;;;;;;;5041498;28;20039;-56
2020/12/10 07:43:28;;;;;;;17.75;6.13;;;;;;;;;;5050694;28;20061;-56
2020/12/10 07:45:54;;;;;;;18.48;6.95;;;;;;;;;;5042957;28;20037;-57
2020/12/10 07:48:20;;;;;;;20.08;5.88;;;;;;;;;;5037637;28;20077;-55
2020/12/10 07:50:47;;;;;;;17.02;5.82;;;;;;;;;;5043320;28;20060;-58
2020/12/10 07:53:14;;;;;;;18.98;6.32;;;;;;;;;;5041690;28;20044;-56
2020/12/10 07:55:44;;;;;;;15.07;5.88;;;;;;;;;;5063422;28;20048;-56
2020/12/10 07:58:16;;;;;;;19.30;6.85;;;;;;;;;;5068220;28;20117;-58
2020/12/10 08:00:45;;;;;;;13.95;5.10;;;;;;;;;;5049439;28;20051;-57
2020/12/10 08:03:11;;;;;;;;;;;;;;;;;;5045723;28;20053;-60
2020/12/10 08:05:38;;;;;;;14.70;5.85;;;;;;;;;;5061879;28;19921;-60
2020/12/10 08:08:04;;;;;;;17.25;6.38;;;;;;;;;;5016287;28;20042;-58
2020/12/10 08:10:33;;;;;;;18.83;5.97;;;;;;;;;;5017367;28;20034;-60
2020/12/10 08:13:13;;;;;;;18.48;6.50;;;;;;;;;;5013764;28;20041;-58
2020/12/10 08:15:40;;;;;;;14.70;5.72;;;;;;;;;;5019387;28;20030;-60
2020/12/10 08:18:07;;;;;;;23.65;6.97;;;;;;;;;;5019197;28;20061;-60
2020/12/10 08:20:43;;;;;;;15.90;5.82;;;;;;;;;;5037002;28;20038;-60
2020/12/10 08:23:09;;;;;;;18.00;6.82;;;;;;;;;;5019232;28;20046;-53
2020/12/10 08:25:35;;;;;;;17.08;5.68;;;;;;;;;;5017072;28;20063;-57
2020/12/10 08:28:03;;;;;;;16.35;6.15;;;;;;;;;;5019709;28;20078;-60
2020/12/10 08:30:33;;;;;;;14.97;6.07;;;;;;;;;;5019018;28;20051;-58
2020/12/10 08:33:00;;;;;;;15.93;5.70;;;;;;;;;;5021408;28;20062;-59
2020/12/10 08:35:26;;;;;;;16.60;6.55;;;;;;;;;;5017768;28;20049;-60
2020/12/10 08:37:53;;;;;;;28.30;8.15;;;;;;;;;;5021583;28;20057;-62
2020/12/10 08:40:23;;;;;;;15.60;5.85;;;;;;;;;;5018410;28;20045;-61
2020/12/10 08:42:49;;;;;;;17.75;7.07;;;;;;;;;;5037207;28;20051;-60
2020/12/10 08:45:27;;;;;;;17.35;6.78;;;;;;;;;;5028889;28;20089;-57
2020/12/10 08:47:57;;;;;;;15.38;6.25;;;;;;;;;;5022902;28;20165;-61
2020/12/10 08:50:24;;;;;;;16.58;6.00;;;;;;;;;;5016753;28;20053;-59
2020/12/10 08:52:51;;;;;;;17.08;6.50;;;;;;;;;;5022364;28;20119;-58
2020/12/10 08:55:17;;;;;;;19.02;7.13;;;;;;;;;;5017818;28;20045;-61
2020/12/10 08:57:49;;;;;;;20.55;5.90;;;;;;;;;;5021044;28;20159;-62
2020/12/10 09:00:15;;;;;;;18.75;6.88;;;;;;;;;;5026451;28;20038;-60
2020/12/10 09:02:42;;;;;;;15.75;5.70;;;;;;;;;;5020103;28;20068;-58
2020/12/10 09:05:13;;;;;;;20.13;7.30;;;;;;;;;;5052268;28;20037;-61
2020/12/10 09:08:09;;;;;;;19.45;7.38;;;;;;;;;;5041200;28;20069;-59
2020/12/10 09:13:41;;;;;;;18.33;6.43;;;;;;;;;;5014173;28;20044;-61
2020/12/10 09:16:16;;;;;;;25.50;7.00;;;;;;;;;;4970741;28;20168;-61
2020/12/10 09:18:50;;;;;;;19.70;6.45;;;;;;;;;;4944714;28;20062;-61
2020/12/10 09:21:17;;;;;;;22.60;6.88;;;;;;;;;;4997699;28;20047;-60
2020/12/10 09:23:46;;;;;;;22.10;7.57;;;;;;;;;;5023448;28;20064;-57
2020/12/10 09:26:12;;;;;;;;;;;;;;;;;;5036139;28;20057;-59
2020/12/10 09:28:38;;;;;;;16.17;5.85;;;;;;;;;;5038959;28;19965;-57
2020/12/10 09:31:04;;;;;;;16.92;6.43;;;;;;;;;;5038483;28;20041;-60
2020/12/10 09:33:30;;;;;;;19.80;7.63;;;;;;;;;;5039701;28;20049;-57
2020/12/10 09:35:56;;;;;;;21.48;8.13;;;;;;;;;;5035923;28;20067;-59
2020/12/10 09:38:24;;;;;;;20.55;6.50;;;;;;;;;;5017557;28;20057;-60
2020/12/10 09:40:53;;;;;;;22.80;7.70;;;;;;;;;;5020255;28;20078;-60
2020/12/10 09:43:21;;;;;;;18.63;6.97;;;;;;;;;;5013899;28;20041;-58
2020/12/10 09:45:52;;;;;;;17.50;6.60;;;;;;;;;;5012288;28;20041;-58
2020/12/10 09:48:20;;;;;;;21.38;6.53;;;;;;;;;;5019758;28;20131;-60
2020/12/10 09:50:46;;;;;;;22.98;8.23;;;;;;;;;;5035000;28;20042;-53
2020/12/10 09:53:15;;;;;;;18.60;6.75;;;;;;;;;;5049479;28;20052;-55
2020/12/10 09:58:34;;;;;;;20.77;7.85;;;;;;;;;;5035907;28;20041;-57
2020/12/10 10:01:01;;;;;;;23.48;8.10;;;;;;;;;;5028436;28;20037;-54
2020/12/10 10:03:27;;;;;;;18.52;6.88;;;;;;;;;;5035542;28;20045;-59
2020/12/10 10:05:54;;;;;;;20.08;6.40;;;;;;;;;;5068612;28;20072;-60
2020/12/10 10:08:22;;;;;;;16.23;6.10;;;;;;;;;;5073263;28;20045;-61
2020/12/10 10:10:49;;;;;;;17.05;6.38;;;;;;;;;;5060874;28;20045;-54
2020/12/10 10:13:15;;;;;;;21.63;8.15;;;;;;;;;;5046793;28;20037;-56
2020/12/10 10:15:45;;;;;;;21.15;7.22;;;;;;;;;;5013125;28;20049;-58
2020/12/10 10:18:15;;;;;;;20.70;7.35;;;;;;;;;;5043387;28;20049;-61
2020/12/10 10:20:41;;;;;;;22.55;7.40;;;;;;;;;;5060373;28;20147;-58
2020/12/10 10:23:07;;;;;;;20.15;7.47;;;;;;;;;;5055848;28;20052;-61
2020/12/10 10:25:33;;;;;;;18.27;7.55;;;;;;;;;;5055569;28;20045;-58
2020/12/10 10:28:00;;;;;;;23.13;7.35;;;;;;;;;;5040665;28;20037;-58
2020/12/10 10:30:28;;;;;;;22.52;7.40;;;;;;;;;;5035763;28;20037;-59
2020/12/10 10:32:54;;;;;;;21.05;6.50;;;;;;;;;;5012418;28;20041;-59
2020/12/10 10:35:21;;;;;;;20.23;7.60;;;;;;;;;;5045569;28;20069;-60
2020/12/10 10:37:47;;;;;;;25.88;8.52;;;;;;;;;;5053857;28;20111;-59
2020/12/10 10:40:14;;;;;;;20.27;8.18;;;;;;;;;;5055730;28;20037;-60
2020/12/10 10:42:41;;;;;;;24.10;8.45;;;;;;;;;;5045146;28;20068;-60
2020/12/10 10:45:09;;;;;;;19.92;6.80;;;;;;;;;;5043853;28;20029;-62
2020/12/10 10:47:35;;;;;;;23.98;7.60;;;;;;;;;;5051523;28;20060;-61
2020/12/10 10:50:01;;;;;;;17.88;7.10;;;;;;;;;;5049917;28;20041;-61
2020/12/10 10:52:27;;;;;;;20.23;7.57;;;;;;;;;;5042371;28;20048;-61
2020/12/10 10:54:54;;;;;;;20.92;8.55;;;;;;;;;;5043293;28;20040;-60
2020/12/10 10:57:22;;;;;;;;;;;;;;;;;;5064663;28;20045;-59
2020/12/10 10:59:48;;;;;;;17.42;6.10;;;;;;;;;;5056767;28;20001;-58
2020/12/10 11:02:16;;;;;;;22.08;7.15;;;;;;;;;;5093405;28;20073;-55
2020/12/10 11:04:42;;;;;;;18.38;6.82;;;;;;;;;;5061733;28;20154;-59
2020/12/10 11:07:09;;;;;;;22.77;8.13;;;;;;;;;;5061869;28;20032;-60
2020/12/10 11:09:40;;;;;;;27.65;7.28;;;;;;;;;;5062969;28;20047;-56
2020/12/10 11:12:07;;;;;;;19.00;6.82;;;;;;;;;;5057775;28;20029;-57
2020/12/10 11:14:37;;;;;;;18.90;6.40;;;;;;;;;;5039873;28;20042;-55
2020/12/10 11:17:03;;;;;;;22.50;8.35;;;;;;;;;;5021420;28;20086;-60
2020/12/10 11:19:33;;;;;;;19.45;7.68;;;;;;;;;;5020823;28;20073;-60
2020/12/10 11:22:00;;;;;;;18.15;6.60;;;;;;;;;;5032730;28;20081;-60
2020/12/10 11:24:26;;;;;;;20.90;7.75;;;;;;;;;;5057395;28;20041;-57
2020/12/10 11:26:53;;;;;;;21.67;8.48;;;;;;;;;;5044778;28;20067;-60
2020/12/10 11:29:19;;;;;;;22.25;7.55;;;;;;;;;;5020855;28;20041;-58
2020/12/10 11:31:45;;;;;;;23.10;7.28;;;;;;;;;;5029049;28;20059;-58
2020/12/10 11:34:11;;;;;;;18.33;6.80;;;;;;;;;;5059230;28;20048;-57
2020/12/10 11:36:38;;;;;;;21.25;7.22;;;;;;;;;;5052134;28;20055;-61
2020/12/10 11:39:05;;;;;;;20.23;7.40;;;;;;;;;;5047243;28;20088;-59
2020/12/10 11:41:31;;;;;;;24.42;8.48;;;;;;;;;;5051844;28;20081;-59
2020/12/10 11:43:57;;;;;;;19.95;7.65;;;;;;;;;;5021754;28;20045;-57
2020/12/10 11:46:24;;;;;;;23.95;8.80;;;;;;;;;;5021029;28;20074;-56
2020/12/10 11:48:54;;;;;;;22.35;9.27;;;;;;;;;;5040704;28;20085;-58
2020/12/10 11:51:20;;;;;;;21.20;7.57;;;;;;;;;;5043386;28;20045;-56
2020/12/10 11:53:49;;;;;;;28.17;9.63;;;;;;;;;;5056899;28;20084;-59
2020/12/10 11:56:16;;;;;;;24.05;7.63;;;;;;;;;;5061179;28;20051;-58
2020/12/10 11:58:44;;;;;;;21.15;7.07;;;;;;;;;;5059007;28;20040;-60
2020/12/10 12:01:24;;;;;;;20.10;8.05;;;;;;;;;;5054499;28;20048;-58
2020/12/10 12:03:54;;;;;;;23.13;8.25;;;;;;;;;;5022311;28;20048;-61
2020/12/10 12:06:25;;;;;;;22.45;8.27;;;;;;;;;;5016277;28;20058;-60
2020/12/10 12:08:56;;;;;;;23.65;7.95;;;;;;;;;;5006369;28;20055;-60
2020/12/10 12:11:24;;;;;;;22.38;7.60;;;;;;;;;;4964202;28;20086;-58
2020/12/10 12:13:50;;;;;;;18.42;6.85;;;;;;;;;;4973677;28;20045;-58
2020/12/10 12:16:19;;;;;;;19.08;6.85;;;;;;;;;;4969301;28;20053;-57
2020/12/10 12:18:49;;;;;;;17.73;6.43;;;;;;;;;;4967603;28;20055;-58
2020/12/10 12:21:23;;;;;;;23.10;8.52;;;;;;;;;;4996625;28;20073;-58
2020/12/10 12:23:51;;;;;;;29.88;9.13;;;;;;;;;;5006249;28;20041;-58
2020/12/10 12:29:13;;;;;;;20.90;7.70;;;;;;;;;;5012818;28;20048;-56
2020/12/10 12:31:52;;;;;;;20.63;7.70;;;;;;;;;;5022084;28;20029;-60
2020/12/10 12:34:28;;;;;;;21.70;7.63;;;;;;;;;;5023415;28;20042;-60
2020/12/10 12:37:08;;;;;;;18.85;7.57;;;;;;;;;;4991879;28;20045;-59
2020/12/10 12:39:35;;;;;;;21.95;7.00;;;;;;;;;;5001331;28;20069;-60
2020/12/10 12:42:18;;;;;;;18.55;7.07;;;;;;;;;;5009833;28;20123;-60
2020/12/10 12:44:48;;;;;;;19.52;7.30;;;;;;;;;;5016018;28;20120;-61
2020/12/10 12:47:14;;;;;;;22.90;8.20;;;;;;;;;;5027668;28;20049;-57
2020/12/10 12:49:41;;;;;;;19.75;7.00;;;;;;;;;;5018460;28;20042;-60
2020/12/10 12:52:07;;;;;;;24.88;7.95;;;;;;;;;;5021309;28;20045;-56
2020/12/10 12:54:34;;;;;;;18.40;7.15;;;;;;;;;;5033018;28;20042;-57
2020/12/10 12:57:01;;;;;;;22.77;7.97;;;;;;;;;;5020865;28;20044;-57
2020/12/10 12:59:28;;;;;;;20.92;7.40;;;;;;;;;;5028310;28;20106;-60
2020/12/10 13:01:55;;;;;;;22.38;8.10;;;;;;;;;;5040659;28;20060;-59
2020/12/10 13:04:22;;;;;;;24.77;8.60;;;;;;;;;;5048370;28;20052;-60
2020/12/10 13:06:49;;;;;;;21.05;7.72;;;;;;;;;;5020764;28;20053;-58
2020/12/10 13:09:15;;;;;;;22.88;8.02;;;;;;;;;;5022949;28;20056;-55
2020/12/10 13:11:45;;;;;;;18.08;7.30;;;;;;;;;;5035672;28;20064;-59
2020/12/10 13:14:12;;;;;;;29.42;9.07;;;;;;;;;;5040751;28;20041;-59
2020/12/10 13:16:39;;;;;;;22.40;7.50;;;;;;;;;;5009832;28;20053;-57
2020/12/10 13:19:08;;;;;;;23.20;8.25;;;;;;;;;;5035879;28;20061;-59
2020/12/10 13:21:36;;;;;;;20.55;7.88;;;;;;;;;;5018441;28;20069;-58
2020/12/10 13:24:02;;;;;;;21.53;8.50;;;;;;;;;;5023322;28;20052;-56
2020/12/10 13:26:28;;;;;;;21.35;7.78;;;;;;;;;;4996961;28;20041;-52
2020/12/10 13:28:54;;;;;;;23.05;8.30;;;;;;;;;;5029377;28;20078;-54
2020/12/10 13:31:24;;;;;;;19.75;7.47;;;;;;;;;;5028857;28;20045;-57
2020/12/10 13:33:50;;;;;;;23.27;8.23;;;;;;;;;;5041746;28;20033;-59
2020/12/10 13:36:17;;;;;;;20.70;7.47;;;;;;;;;;5036095;28;20083;-58
2020/12/10 13:38:44;;;;;;;21.67;8.32;;;;;;;;;;5037339;28;20045;-56
2020/12/10 13:41:10;;;;;;;22.63;7.50;;;;;;;;;;5019897;28;20053;-60
2020/12/10 13:43:37;;;;;;;23.30;8.25;;;;;;;;;;5023218;28;20053;-53
2020/12/10 13:46:03;;;;;;;22.25;7.72;;;;;;;;;;4990179;28;20094;-57
2020/12/10 13:48:30;;;;;;;22.75;8.02;;;;;;;;;;5020568;28;20048;-59
2020/12/10 13:50:57;;;;;;;23.20;8.50;;;;;;;;;;5020967;28;20054;-59
2020/12/10 13:53:24;;;;;;;22.95;8.43;;;;;;;;;;5016849;28;20037;-57
2020/12/10 13:55:53;;;;;;;20.05;6.97;;;;;;;;;;5018794;28;20045;-57
2020/12/10 13:58:20;;;;;;;14.40;5.72;;;;;;;;;;5011403;28;20139;-56
2020/12/10 14:00:46;;;;;;;23.15;7.50;;;;;;;;;;5012193;28;20041;-56
2020/12/10 14:03:12;;;;;;;23.75;8.32;;;;;;;;;;5025169;28;20052;-57
2020/12/10 14:05:38;;;;;;;22.55;7.97;;;;;;;;;;5039280;28;20049;-53
2020/12/10 14:08:04;;;;;;;22.83;8.98;;;;;;;;;;5039183;28;20036;-52
2020/12/10 14:10:35;;;;;;;22.42;7.85;;;;;;;;;;5052444;28;20029;-57
2020/12/10 14:13:01;;;;;;;21.52;8.85;;;;;;;;;;5047184;28;20049;-58
2020/12/10 14:15:27;;;;;;;18.77;7.28;;;;;;;;;;5039911;28;20117;-55
2020/12/10 14:17:53;;;;;;;25.48;7.80;;;;;;;;;;5047389;28;20032;-60
2020/12/10 14:20:21;;;;;;;22.95;8.10;;;;;;;;;;5063228;28;20037;-59
2020/12/10 14:22:50;;;;;;;20.70;7.85;;;;;;;;;;5045591;28;20045;-58
2020/12/10 14:25:22;;;;;;;22.00;7.53;;;;;;;;;;5043681;28;20057;-57
2020/12/10 14:27:49;;;;;;;21.95;8.43;;;;;;;;;;5028589;28;20069;-56
2020/12/10 14:30:16;;;;;;;22.38;8.18;;;;;;;;;;5012830;28;20049;-61
2020/12/10 14:32:42;;;;;;;23.30;8.32;;;;;;;;;;5040546;28;20062;-55
2020/12/10 14:35:08;;;;;;;21.80;7.90;;;;;;;;;;5044127;28;20040;-56
2020/12/10 14:37:34;;;;;;;21.98;8.40;;;;;;;;;;5045269;28;20071;-57
2020/12/10 14:40:04;;;;;;;19.58;7.53;;;;;;;;;;5032622;28;20072;-59
2020/12/10 14:42:33;;;;;;;19.80;7.82;;;;;;;;;;5040554;28;20045;-60